createdAt,value
2019-03-02T00:01:29.654Z,33.83
2019-03-02T00:03:59.125Z,41.83
2019-03-02T00:06:28.644Z,42.07
2019-03-02T00:09:01.177Z,46.40
2019-03-02T00:11:30.655Z,51.07
2019-03-02T00:14:00.114Z,55.33
2019-03-02T00:16:29.588Z,55.17
2019-03-02T00:18:59.062Z,66.13
2019-03-02T00:21:31.375Z,66.37
2019-03-02T00:23:59.852Z,66.60
2019-03-02T00:26:29.350Z,62.73
2019-03-02T00:28:58.821Z,56.83
2019-03-02T00:31:29.832Z,51.30
2019-03-02T00:33:59.515Z,46.47
2019-03-02T00:36:28.965Z,43.13
2019-03-02T00:38:58.482Z,46.53
2019-03-02T00:41:28.024Z,41.87
2019-03-02T00:43:59.802Z,40.47
2019-03-02T00:46:28.787Z,38.43
2019-03-02T00:48:58.333Z,38.70
2019-03-02T00:51:27.916Z,36.40
2019-03-02T00:53:57.419Z,38.33
2019-03-02T00:56:27.288Z,42.77
2019-03-02T00:58:56.793Z,44.40
2019-03-02T01:01:28.657Z,50.40
2019-03-02T01:03:57.516Z,53.47
2019-03-02T01:06:26.995Z,47.67
2019-03-02T01:08:56.554Z,48.53
2019-03-02T01:11:26.092Z,48.60
2019-03-02T01:13:56.838Z,51.13
2019-03-02T01:16:26.902Z,50.27
2019-03-02T01:18:56.371Z,53.10
2019-03-02T01:21:25.850Z,53.43
2019-03-02T01:23:55.325Z,61.33
2019-03-02T01:26:24.842Z,61.20
2019-03-02T01:28:54.292Z,65.53
2019-03-02T01:31:23.793Z,67.23
2019-03-02T01:33:53.306Z,62.30
2019-03-02T01:36:22.808Z,66.37
2019-03-02T01:38:54.030Z,68.27
2019-03-02T01:41:23.545Z,64.63
2019-03-02T01:43:53.024Z,61.53
2019-03-02T01:46:22.503Z,58.70
2019-03-02T01:48:52.053Z,61.10
2019-03-02T01:51:23.096Z,64.50
2019-03-02T01:53:52.799Z,61.27
2019-03-02T01:56:22.399Z,57.10
2019-03-02T01:58:51.884Z,54.67
2019-03-02T02:01:24.749Z,53.17
2019-03-02T02:03:52.619Z,49.93
2019-03-02T02:06:22.146Z,46.77
2019-03-02T02:08:51.671Z,38.70
2019-03-02T02:11:21.221Z,42.20
2019-03-02T02:13:50.714Z,45.77
2019-03-02T02:16:20.205Z,45.80
2019-03-02T02:18:49.683Z,49.70
2019-03-02T02:21:19.229Z,38.77
2019-03-02T02:23:49.848Z,35.37
2019-03-02T02:26:20.015Z,30.13
2019-03-02T02:28:49.474Z,29.63
2019-03-02T02:31:18.948Z,29.37
2019-03-02T02:33:50.154Z,28.97
2019-03-02T02:36:20.408Z,29.77
2019-03-02T02:38:54.448Z,29.00
2019-03-02T02:41:23.146Z,31.80
2019-03-02T02:43:54.384Z,34.87
2019-03-02T02:46:27.472Z,31.50
2019-03-02T02:48:55.084Z,29.90
2019-03-02T02:51:24.563Z,33.40
2019-03-02T02:53:54.031Z,32.27
2019-03-02T02:56:23.530Z,36.87
2019-03-02T02:58:56.141Z,34.57
2019-03-02T03:01:24.259Z,35.67
2019-03-02T03:03:54.776Z,33.87
2019-03-02T03:06:28.623Z,33.63
2019-03-02T03:08:56.174Z,38.03
2019-03-02T03:11:25.653Z,35.17
2019-03-02T03:13:55.128Z,35.23
2019-03-02T03:16:24.664Z,33.30
2019-03-02T03:18:54.207Z,28.23
2019-03-02T03:21:27.775Z,29.10
2019-03-02T03:24:03.218Z,25.43
2019-03-02T03:26:26.057Z,27.37
2019-03-02T03:28:55.568Z,28.47
2019-03-02T03:31:26.245Z,26.07
2019-03-02T03:33:56.247Z,23.70
2019-03-02T03:36:30.196Z,21.10
2019-03-02T03:38:56.993Z,24.40
2019-03-02T03:41:26.544Z,20.40
2019-03-02T03:43:56.052Z,17.17
2019-03-02T03:46:25.551Z,19.27
2019-03-02T03:48:56.477Z,20.67
2019-03-02T03:51:30.510Z,31.33
2019-03-02T03:54:01.599Z,22.83
2019-03-02T03:56:28.887Z,20.10
2019-03-02T03:58:58.380Z,18.27
2019-03-02T04:01:27.835Z,17.57
2019-03-02T04:03:57.425Z,23.03
2019-03-02T04:06:27.845Z,17.97
2019-03-02T04:08:58.224Z,20.40
2019-03-02T04:11:27.735Z,21.73
2019-03-02T04:13:57.238Z,21.97
2019-03-02T04:16:26.730Z,17.97
2019-03-02T04:19:00.351Z,15.47
2019-03-02T04:21:38.849Z,14.60
2019-03-02T04:24:08.326Z,14.03
2019-03-02T04:26:38.596Z,17.77
2019-03-02T04:29:09.918Z,17.60
2019-03-02T04:31:44.088Z,13.13
2019-03-02T04:34:10.873Z,14.77
2019-03-02T04:36:43.173Z,16.73
2019-03-02T04:39:13.655Z,17.60
2019-03-02T04:41:42.773Z,13.73
2019-03-02T04:44:12.318Z,18.27
2019-03-02T04:46:41.772Z,16.53
2019-03-02T04:49:14.686Z,17.00
2019-03-02T04:51:42.537Z,16.13
2019-03-02T04:54:12.069Z,15.07
2019-03-02T04:56:41.551Z,17.57
2019-03-02T04:59:11.020Z,21.50
2019-03-02T05:01:43.659Z,18.47
2019-03-02T05:04:11.768Z,21.97
2019-03-02T05:06:41.552Z,14.70
2019-03-02T05:09:13.655Z,17.90
2019-03-02T05:11:42.234Z,17.63
2019-03-02T05:14:11.699Z,18.73
2019-03-02T05:16:41.235Z,17.20
2019-03-02T05:19:10.778Z,13.53
2019-03-02T05:21:43.520Z,19.27
2019-03-02T05:24:11.537Z,15.13
2019-03-02T05:26:41.036Z,16.40
2019-03-02T05:29:10.551Z,12.50
2019-03-02T05:31:40.917Z,14.67
2019-03-02T05:34:11.545Z,13.23
2019-03-02T05:36:41.805Z,12.37
2019-03-02T05:39:13.870Z,11.30
2019-03-02T05:41:42.533Z,13.53
2019-03-02T05:44:12.044Z,9.87
2019-03-02T05:46:41.593Z,9.77
2019-03-02T05:49:11.112Z,9.33
2019-03-02T05:51:42.790Z,9.07
2019-03-02T05:54:12.051Z,12.27
2019-03-02T05:56:41.565Z,10.77
2019-03-02T05:59:11.082Z,9.20
2019-03-02T06:01:44.165Z,10.80
2019-03-02T06:04:23.189Z,9.30
2019-03-02T06:06:54.179Z,10.07
2019-03-02T06:09:23.837Z,11.80
2019-03-02T06:11:56.239Z,12.57
2019-03-02T06:14:26.744Z,11.10
2019-03-02T06:16:57.424Z,15.20
2019-03-02T06:19:28.031Z,12.13
2019-03-02T06:21:57.532Z,14.33
2019-03-02T06:24:27.034Z,12.47
2019-03-02T06:26:56.490Z,9.60
2019-03-02T06:29:25.996Z,7.37
2019-03-02T06:31:55.530Z,7.43
2019-03-02T06:34:25.057Z,8.80
2019-03-02T06:36:54.577Z,7.37
2019-03-02T06:39:24.078Z,7.70
2019-03-02T06:41:53.523Z,11.80
2019-03-02T06:44:23.024Z,8.47
2019-03-02T06:46:54.692Z,9.97
2019-03-02T06:49:23.786Z,10.43
2019-03-02T06:51:53.297Z,8.23
2019-03-02T06:54:22.803Z,11.07
2019-03-02T06:56:57.855Z,13.90
2019-03-02T06:59:23.595Z,13.77
2019-03-02T07:01:53.086Z,10.50
2019-03-02T07:04:23.133Z,13.67
2019-03-02T07:06:52.823Z,12.53
2019-03-02T07:09:22.319Z,11.33
2019-03-02T07:11:51.822Z,10.60
2019-03-02T07:14:21.381Z,8.87
2019-03-02T07:16:52.041Z,12.00
2019-03-02T07:19:29.105Z,9.50
2019-03-02T07:21:58.599Z,13.67
2019-03-02T07:24:29.524Z,16.47
2019-03-02T07:26:59.355Z,11.70
2019-03-02T07:29:28.908Z,12.43
2019-03-02T07:31:58.402Z,10.93
2019-03-02T07:34:27.892Z,12.80
2019-03-02T07:36:57.392Z,14.23
2019-03-02T07:39:28.760Z,18.53
2019-03-02T07:41:58.847Z,10.47
2019-03-02T07:44:28.477Z,12.07
2019-03-02T07:46:57.970Z,11.07
2019-03-02T07:49:27.475Z,10.60
2019-03-02T07:51:56.967Z,11.53
2019-03-02T07:54:26.439Z,12.53
2019-03-02T07:56:55.924Z,10.83
2019-03-02T07:59:26.562Z,12.57
2019-03-02T08:01:56.647Z,11.90
2019-03-02T08:04:26.141Z,9.37
2019-03-02T08:06:57.931Z,9.93
2019-03-02T08:09:27.114Z,10.17
2019-03-02T08:11:56.642Z,9.53
2019-03-02T08:14:26.217Z,10.53
2019-03-02T08:16:55.811Z,11.90
2019-03-02T08:19:25.361Z,14.43
2019-03-02T08:21:54.828Z,10.10
2019-03-02T08:24:24.343Z,10.40
2019-03-02T08:26:53.794Z,9.03
2019-03-02T08:29:23.296Z,9.83
2019-03-02T08:31:52.815Z,11.47
2019-03-02T08:34:22.344Z,8.57
2019-03-02T08:36:54.280Z,12.67
2019-03-02T08:39:23.103Z,10.93
2019-03-02T08:41:53.104Z,9.83
2019-03-02T08:44:22.794Z,7.97
2019-03-02T08:46:52.251Z,7.50
2019-03-02T08:49:21.837Z,7.87
2019-03-02T08:51:51.309Z,7.73
2019-03-02T08:54:21.514Z,6.40
2019-03-02T08:56:51.862Z,8.80
2019-03-02T08:59:21.496Z,8.03
2019-03-02T09:01:51.290Z,8.37
2019-03-02T09:04:22.261Z,10.97
2019-03-02T09:06:51.753Z,6.90
2019-03-02T09:09:21.263Z,6.53
2019-03-02T09:11:50.803Z,6.83
2019-03-02T09:14:20.279Z,6.97
2019-03-02T09:16:49.727Z,7.50
2019-03-02T09:19:20.892Z,10.43
2019-03-02T09:21:51.255Z,10.20
2019-03-02T09:24:21.170Z,7.27
2019-03-02T09:26:50.670Z,7.40
2019-03-02T09:29:20.145Z,10.10
2019-03-02T09:31:49.711Z,8.50
2019-03-02T09:34:19.248Z,6.90
2019-03-02T09:36:48.883Z,6.90
2019-03-02T09:39:18.367Z,6.87
2019-03-02T09:41:47.923Z,7.33
2019-03-02T09:44:17.402Z,6.73
2019-03-02T09:46:50.273Z,8.60
2019-03-02T09:49:25.036Z,7.53
2019-03-02T09:51:56.907Z,9.33
2019-03-02T09:54:26.243Z,9.53
2019-03-02T09:56:55.730Z,7.77
2019-03-02T09:59:25.207Z,7.03
2019-03-02T10:01:54.685Z,9.10
2019-03-02T10:04:24.195Z,7.53
2019-03-02T10:06:53.755Z,11.33
2019-03-02T10:09:24.972Z,11.03
2019-03-02T10:11:54.557Z,8.87
2019-03-02T10:14:27.817Z,9.40
2019-03-02T10:16:57.351Z,10.60
2019-03-02T10:19:28.893Z,12.73
2019-03-02T10:21:58.130Z,10.40
2019-03-02T10:24:27.649Z,30.20
2019-03-02T10:26:57.157Z,11.40
2019-03-02T10:29:26.640Z,12.40
2019-03-02T10:31:56.128Z,13.57
2019-03-02T10:34:25.590Z,12.63
2019-03-02T10:36:55.143Z,11.33
2019-03-02T10:39:24.728Z,10.70
2019-03-02T10:41:56.711Z,10.47
2019-03-02T10:44:25.505Z,10.17
2019-03-02T10:46:55.031Z,10.87
2019-03-02T10:49:24.555Z,9.63
2019-03-02T10:51:54.046Z,9.87
2019-03-02T10:54:23.578Z,10.23
2019-03-02T10:56:53.119Z,12.57
2019-03-02T10:59:22.615Z,9.97
2019-03-02T11:01:52.078Z,12.03
2019-03-02T11:04:44.444Z,10.43
2019-03-02T11:07:35.140Z,11.00
2019-03-02T11:10:21.739Z,11.27
2019-03-02T11:13:07.276Z,12.70
2019-03-02T11:15:54.613Z,11.13
2019-03-02T11:19:01.449Z,12.70
2019-03-02T11:21:54.603Z,11.90
2019-03-02T11:24:33.936Z,11.50
2019-03-02T11:27:27.098Z,13.90
2019-03-02T11:30:14.309Z,9.50
2019-03-02T11:32:59.059Z,9.40
2019-03-02T11:35:39.667Z,9.97
2019-03-02T11:38:27.195Z,8.70
2019-03-02T11:41:20.946Z,9.67
2019-03-02T11:44:03.781Z,9.43
2019-03-02T11:46:46.395Z,9.10
2019-03-02T11:49:30.666Z,9.40
2019-03-02T11:52:10.195Z,10.13
2019-03-02T11:55:07.735Z,9.13
2019-03-02T11:57:53.822Z,7.97
2019-03-02T12:00:42.064Z,10.57
2019-03-02T12:03:35.245Z,7.83
2019-03-02T12:06:27.004Z,10.67
2019-03-02T12:09:05.957Z,9.73
2019-03-02T12:11:53.260Z,11.73
2019-03-02T12:14:34.764Z,8.93
2019-03-02T12:17:21.618Z,8.70
2019-03-02T12:20:08.893Z,8.30
2019-03-02T12:22:54.746Z,12.10
2019-03-02T12:25:49.233Z,9.20
2019-03-02T12:28:43.705Z,7.77
2019-03-02T12:31:31.873Z,8.10
2019-03-02T12:34:15.068Z,9.10
2019-03-02T12:36:53.275Z,8.03
2019-03-02T12:39:40.941Z,8.13
2019-03-02T12:42:47.975Z,8.80
2019-03-02T12:45:42.748Z,8.50
2019-03-02T12:48:49.694Z,8.63
2019-03-02T12:51:53.200Z,8.10
2019-03-02T12:54:33.768Z,8.17
2019-03-02T12:57:09.578Z,7.20
2019-03-02T12:59:55.760Z,8.73
2019-03-02T13:02:56.556Z,8.13
2019-03-02T13:05:45.284Z,8.60
2019-03-02T13:08:34.869Z,9.80
2019-03-02T13:11:28.880Z,17.67
2019-03-02T13:14:15.895Z,10.27
2019-03-02T13:17:04.721Z,10.10
2019-03-02T13:19:49.022Z,8.37
2019-03-02T13:22:32.712Z,10.10
2019-03-02T13:25:34.188Z,8.57
2019-03-02T13:28:26.455Z,7.93
2019-03-02T13:31:23.772Z,9.00
2019-03-02T13:34:20.012Z,6.17
2019-03-02T13:36:57.279Z,5.80
2019-03-02T13:39:47.126Z,7.97
2019-03-02T13:42:46.776Z,10.20
2019-03-02T13:45:34.484Z,8.00
2019-03-02T13:48:25.722Z,9.03
2019-03-02T13:51:14.492Z,8.27
2019-03-02T13:53:59.215Z,8.47
2019-03-02T13:56:48.261Z,7.73
2019-03-02T13:59:48.870Z,7.80
2019-03-02T14:02:46.468Z,9.87
2019-03-02T14:05:41.951Z,7.43
2019-03-02T14:08:43.309Z,8.23
2019-03-02T14:11:18.834Z,11.33
2019-03-02T14:14:08.230Z,10.67
2019-03-02T14:16:55.379Z,11.17
2019-03-02T14:19:38.036Z,11.17
2019-03-02T14:22:34.710Z,11.13
2019-03-02T14:25:32.700Z,11.10
2019-03-02T14:28:21.114Z,13.37
2019-03-02T14:31:19.611Z,12.67
2019-03-02T14:34:02.915Z,10.60
2019-03-02T14:36:36.423Z,9.57
2019-03-02T14:39:21.576Z,10.20
2019-03-02T14:42:08.914Z,9.83
2019-03-02T14:44:49.164Z,9.97
2019-03-02T14:47:40.582Z,10.90
2019-03-02T14:50:20.033Z,16.13
2019-03-02T14:53:06.224Z,14.17
2019-03-02T14:55:49.870Z,10.17
2019-03-02T14:58:44.421Z,9.40
2019-03-02T15:01:47.956Z,11.40
2019-03-02T15:04:51.768Z,13.23
2019-03-02T15:07:59.236Z,9.67
2019-03-02T15:10:47.290Z,10.50
2019-03-02T15:13:47.427Z,8.70
2019-03-02T15:16:38.641Z,8.23
2019-03-02T15:19:28.751Z,8.90
2019-03-02T15:22:25.436Z,8.50
2019-03-02T15:25:00.718Z,8.43
2019-03-02T15:28:01.229Z,12.23
2019-03-02T15:31:07.801Z,10.10
2019-03-02T15:33:56.224Z,10.10
2019-03-02T15:36:43.996Z,11.73
2019-03-02T15:39:37.793Z,11.00
2019-03-02T15:42:32.288Z,11.43
2019-03-02T15:45:15.199Z,15.03
2019-03-02T15:47:54.885Z,16.07
2019-03-02T15:50:30.298Z,12.80
2019-03-02T15:53:09.105Z,12.50
2019-03-02T15:55:57.536Z,11.67
2019-03-02T15:58:45.370Z,12.67
2019-03-02T16:01:46.182Z,12.83
2019-03-02T16:04:35.451Z,14.43
2019-03-02T16:07:15.071Z,13.23
2019-03-02T16:10:07.210Z,17.20
2019-03-02T16:13:04.610Z,16.43
2019-03-02T16:15:50.489Z,18.13
2019-03-02T16:18:41.998Z,15.47
2019-03-02T16:21:31.265Z,19.50
2019-03-02T16:24:14.047Z,19.90
2019-03-02T16:27:04.348Z,19.87
2019-03-02T16:29:52.738Z,24.20
2019-03-02T16:32:36.027Z,24.93
2019-03-02T16:35:40.116Z,20.53
2019-03-02T16:38:33.447Z,17.07
2019-03-02T16:41:31.154Z,24.83
2019-03-02T16:44:27.226Z,19.13
2019-03-02T16:47:25.074Z,18.03
2019-03-02T16:50:01.202Z,21.00
2019-03-02T16:52:55.806Z,20.47
2019-03-02T16:55:45.248Z,19.03
2019-03-02T16:58:39.494Z,17.97
2019-03-02T17:01:37.266Z,19.37
2019-03-02T17:04:31.893Z,20.63
2019-03-02T17:07:11.169Z,19.57
2019-03-02T17:10:02.895Z,25.73
2019-03-02T17:12:51.325Z,25.50
2019-03-02T17:15:39.713Z,25.37
2019-03-02T17:18:37.304Z,22.93
2019-03-02T17:21:11.148Z,34.10
2019-03-02T17:24:07.712Z,43.97
2019-03-02T17:26:55.036Z,29.80
2019-03-02T17:29:55.697Z,36.30
2019-03-02T17:32:38.089Z,34.63
2019-03-02T17:35:29.242Z,30.97
2019-03-02T17:38:15.640Z,34.13
2019-03-02T17:41:07.542Z,32.93
2019-03-02T17:43:52.079Z,31.60
2019-03-02T17:46:32.968Z,28.50
2019-03-02T17:49:28.232Z,25.27
2019-03-02T17:51:58.901Z,21.60
2019-03-02T17:54:42.286Z,22.50
2019-03-02T17:57:37.907Z,18.07
2019-03-02T18:00:15.995Z,16.73
2019-03-02T18:02:59.594Z,23.20
2019-03-02T18:05:35.147Z,21.17
2019-03-02T18:08:32.907Z,21.40
2019-03-02T18:11:20.264Z,22.37
2019-03-02T18:14:16.129Z,23.40
2019-03-02T18:17:00.210Z,26.67
2019-03-02T18:19:29.747Z,34.03
2019-03-02T18:21:59.284Z,27.70
2019-03-02T18:24:31.953Z,28.67
2019-03-02T18:27:00.894Z,25.67
2019-03-02T18:29:31.136Z,29.13
2019-03-02T18:32:02.230Z,25.63
2019-03-02T18:34:31.888Z,21.80
2019-03-02T18:37:01.483Z,24.73
2019-03-02T18:39:30.963Z,23.00
2019-03-02T18:42:00.456Z,20.80
2019-03-02T18:44:29.983Z,20.13
2019-03-02T18:46:59.517Z,20.57
2019-03-02T18:49:57.100Z,18.67
2019-03-02T18:52:44.610Z,21.47
2019-03-02T18:55:14.137Z,22.57
2019-03-02T18:57:46.640Z,17.93
2019-03-02T19:00:22.913Z,22.50
2019-03-02T19:02:52.558Z,21.67
2019-03-02T19:05:28.635Z,20.00
2019-03-02T19:07:59.626Z,21.10
2019-03-02T19:10:29.388Z,24.10
2019-03-02T19:12:59.050Z,20.23
2019-03-02T19:15:28.854Z,22.13
2019-03-02T19:17:58.693Z,21.37
2019-03-02T19:20:28.196Z,20.80
2019-03-02T19:22:57.700Z,23.60
2019-03-02T19:25:27.235Z,22.23
2019-03-02T19:27:56.830Z,21.17
2019-03-02T19:30:26.311Z,21.17
2019-03-02T19:32:55.843Z,23.93
2019-03-02T19:35:25.389Z,22.53
2019-03-02T19:37:54.887Z,26.67
2019-03-02T19:40:26.539Z,21.23
2019-03-02T19:42:56.086Z,21.67
2019-03-02T19:45:25.575Z,23.27
2019-03-02T19:47:55.110Z,21.13
2019-03-02T19:50:24.611Z,21.70
2019-03-02T19:52:54.144Z,26.03
2019-03-02T19:55:23.623Z,20.87
2019-03-02T19:57:53.218Z,24.07
2019-03-02T20:00:27.336Z,22.50
2019-03-02T20:02:56.810Z,24.80
2019-03-02T20:05:26.357Z,21.77
2019-03-02T20:07:55.856Z,26.57
2019-03-02T20:10:25.904Z,26.33
2019-03-02T20:12:55.458Z,29.00
2019-03-02T20:15:24.991Z,22.27
2019-03-02T20:17:54.511Z,22.73
2019-03-02T20:20:24.000Z,24.83
2019-03-02T20:22:53.620Z,23.07
2019-03-02T20:25:23.242Z,29.00
2019-03-02T20:27:52.782Z,21.83
2019-03-02T20:30:22.295Z,20.87
2019-03-02T20:32:51.902Z,21.37
2019-03-02T20:35:22.409Z,25.37
2019-03-02T20:37:51.957Z,19.87
2019-03-02T20:40:21.986Z,22.73
2019-03-02T20:42:51.507Z,19.00
2019-03-02T20:45:21.133Z,20.13
2019-03-02T20:47:53.443Z,20.53
2019-03-02T20:50:22.962Z,20.47
2019-03-02T20:52:52.576Z,18.70
2019-03-02T20:55:24.025Z,27.83
2019-03-02T20:57:53.425Z,20.03
2019-03-02T21:00:25.297Z,19.37
2019-03-02T21:02:54.954Z,20.37
2019-03-02T21:05:24.745Z,21.10
2019-03-02T21:07:54.381Z,21.80
2019-03-02T21:10:24.446Z,22.57
2019-03-02T21:12:53.996Z,21.53
2019-03-02T21:15:29.174Z,20.03
2019-03-02T21:17:58.698Z,21.90
2019-03-02T21:20:28.297Z,20.17
2019-03-02T21:22:57.803Z,21.37
2019-03-02T21:25:27.473Z,19.60
2019-03-02T21:27:56.987Z,19.00
2019-03-02T21:30:26.497Z,19.77
2019-03-02T21:32:55.988Z,21.83
2019-03-02T21:35:25.550Z,20.27
2019-03-02T21:37:56.401Z,19.83
2019-03-02T21:40:25.987Z,21.40
2019-03-02T21:42:55.971Z,20.30
2019-03-02T21:45:25.616Z,21.70
2019-03-02T21:47:55.101Z,19.60
2019-03-02T21:50:26.651Z,22.93
2019-03-02T21:52:56.157Z,22.60
2019-03-02T21:55:25.624Z,19.50
2019-03-02T21:57:55.126Z,20.80
2019-03-02T22:00:25.991Z,21.63
2019-03-02T22:02:55.481Z,20.10
2019-03-02T22:05:24.940Z,21.60
2019-03-02T22:07:54.479Z,20.37
2019-03-02T22:10:36.099Z,16.70
2019-03-02T22:13:05.674Z,18.63
2019-03-02T22:15:35.391Z,18.00
2019-03-02T22:18:05.238Z,19.40
2019-03-02T22:20:36.162Z,21.20
2019-03-02T22:23:05.801Z,20.73
2019-03-02T22:25:35.338Z,17.33
2019-03-02T22:28:04.967Z,19.60
2019-03-02T22:30:34.603Z,20.60
2019-03-02T22:33:04.081Z,21.90
2019-03-02T22:35:33.579Z,20.07
2019-03-02T22:38:03.071Z,22.67
2019-03-02T22:40:32.617Z,21.90
2019-03-02T22:43:02.092Z,20.77
2019-03-02T22:45:31.621Z,22.47
2019-03-02T22:48:01.164Z,22.43
2019-03-02T22:50:30.652Z,21.13
2019-03-02T22:53:00.184Z,27.30
2019-03-02T22:55:29.774Z,23.97
2019-03-02T22:57:59.762Z,24.60
2019-03-02T23:00:56.642Z,21.73
2019-03-02T23:03:24.348Z,23.87
2019-03-02T23:05:53.863Z,22.43
2019-03-02T23:08:23.357Z,21.43
2019-03-02T23:10:52.908Z,23.90
2019-03-02T23:13:22.499Z,24.13
2019-03-02T23:15:51.980Z,24.63
2019-03-02T23:18:21.473Z,26.37
2019-03-02T23:20:50.974Z,25.20
2019-03-02T23:23:20.540Z,24.80
2019-03-02T23:25:50.014Z,30.07
2019-03-02T23:28:19.562Z,22.53
2019-03-02T23:30:49.051Z,26.87
2019-03-02T23:33:18.955Z,22.97
2019-03-02T23:35:48.422Z,24.43
2019-03-02T23:38:17.908Z,26.93
2019-03-02T23:40:47.409Z,27.03
2019-03-02T23:43:16.896Z,26.60
2019-03-02T23:45:46.574Z,29.97
2019-03-02T23:48:16.068Z,33.47
2019-03-02T23:50:45.549Z,29.17
2019-03-02T23:53:15.022Z,30.43
2019-03-02T23:55:44.514Z,29.17
2019-03-02T23:58:14.384Z,29.30
